sensor_id;sensor_type;location;lat;lon;timestamp;P1;durP1;ratioP1;P2;durP2;ratioP2
22826;SDS011;11580;52.562;13.418;2022-11-12T00:01:31;4.70;;;4.30;;
22826;SDS011;11580;52.562;13.418;2022-11-12T00:04:16;4.23;;;3.93;;
22826;SDS011;11580;52.562;13.418;2022-11-12T00:07:02;5.10;;;4.20;;
22826;SDS011;11580;52.562;13.418;2022-11-12T00:09:48;5.10;;;4.60;;
22826;SDS011;11580;52.562;13.418;2022-11-12T00:12:33;5.97;;;5.20;;
22826;SDS011;11580;52.562;13.418;2022-11-12T00:15:19;5.53;;;4.67;;
22826;SDS011;11580;52.562;13.418;2022-11-12T00:18:06;4.70;;;4.30;;
22826;SDS011;11580;52.562;13.418;2022-11-12T00:20:52;5.20;;;4.70;;
22826;SDS011;11580;52.562;13.418;2022-11-12T00:23:37;4.80;;;4.33;;
22826;SDS011;11580;52.562;13.418;2022-11-12T00:26:23;7.30;;;3.93;;
22826;SDS011;11580;52.562;13.418;2022-11-12T00:29:08;4.87;;;4.40;;
22826;SDS011;11580;52.562;13.418;2022-11-12T00:31:54;4.93;;;4.27;;
22826;SDS011;11580;52.562;13.418;2022-11-12T00:34:41;5.00;;;4.40;;
22826;SDS011;11580;52.562;13.418;2022-11-12T00:37:27;4.47;;;4.10;;
22826;SDS011;11580;52.562;13.418;2022-11-12T00:40:12;4.93;;;4.43;;
22826;SDS011;11580;52.562;13.418;2022-11-12T00:42:58;4.27;;;3.87;;
22826;SDS011;11580;52.562;13.418;2022-11-12T00:45:44;4.57;;;4.17;;
22826;SDS011;11580;52.562;13.418;2022-11-12T00:48:29;6.27;;;4.90;;
22826;SDS011;11580;52.562;13.418;2022-11-12T00:51:16;5.43;;;4.93;;
22826;SDS011;11580;52.562;13.418;2022-11-12T00:54:02;5.47;;;4.93;;
22826;SDS011;11580;52.562;13.418;2022-11-12T00:56:49;5.80;;;5.30;;
22826;SDS011;11580;52.562;13.418;2022-11-12T00:59:35;6.57;;;5.60;;
22826;SDS011;11580;52.562;13.418;2022-11-12T01:02:20;6.10;;;5.50;;
22826;SDS011;11580;52.562;13.418;2022-11-12T01:05:06;6.80;;;6.10;;
22826;SDS011;11580;52.562;13.418;2022-11-12T01:07:53;6.60;;;5.23;;
22826;SDS011;11580;52.562;13.418;2022-11-12T01:10:39;5.60;;;4.83;;
22826;SDS011;11580;52.562;13.418;2022-11-12T01:13:25;4.90;;;4.40;;
22826;SDS011;11580;52.562;13.418;2022-11-12T01:16:11;4.53;;;4.13;;
22826;SDS011;11580;52.562;13.418;2022-11-12T01:19:00;4.33;;;3.93;;
22826;SDS011;11580;52.562;13.418;2022-11-12T01:21:48;4.23;;;3.87;;
22826;SDS011;11580;52.562;13.418;2022-11-12T01:24:35;3.97;;;3.67;;
22826;SDS011;11580;52.562;13.418;2022-11-12T01:27:21;4.40;;;4.00;;
22826;SDS011;11580;52.562;13.418;2022-11-12T01:30:07;4.87;;;3.97;;
22826;SDS011;11580;52.562;13.418;2022-11-12T01:32:57;4.37;;;3.97;;
22826;SDS011;11580;52.562;13.418;2022-11-12T01:35:42;4.33;;;4.03;;
22826;SDS011;11580;52.562;13.418;2022-11-12T01:38:28;4.13;;;3.83;;
22826;SDS011;11580;52.562;13.418;2022-11-12T01:41:19;6.03;;;4.47;;
22826;SDS011;11580;52.562;13.418;2022-11-12T01:44:09;6.83;;;4.23;;
22826;SDS011;11580;52.562;13.418;2022-11-12T01:46:59;4.53;;;4.13;;
22826;SDS011;11580;52.562;13.418;2022-11-12T01:49:51;4.17;;;3.77;;
22826;SDS011;11580;52.562;13.418;2022-11-12T01:52:42;8.50;;;4.60;;
22826;SDS011;11580;52.562;13.418;2022-11-12T01:55:33;5.20;;;4.70;;
22826;SDS011;11580;52.562;13.418;2022-11-12T01:58:23;5.03;;;4.30;;
22826;SDS011;11580;52.562;13.418;2022-11-12T02:01:14;5.07;;;4.30;;
22826;SDS011;11580;52.562;13.418;2022-11-12T02:04:00;5.90;;;5.27;;
22826;SDS011;11580;52.562;13.418;2022-11-12T02:06:45;4.77;;;4.37;;
22826;SDS011;11580;52.562;13.418;2022-11-12T02:09:34;3.90;;;3.60;;
22826;SDS011;11580;52.562;13.418;2022-11-12T02:12:20;4.27;;;3.87;;
22826;SDS011;11580;52.562;13.418;2022-11-12T02:15:25;5.03;;;4.17;;
22826;SDS011;11580;52.562;13.418;2022-11-12T02:18:11;4.67;;;4.27;;
22826;SDS011;11580;52.562;13.418;2022-11-12T02:20:57;4.30;;;3.90;;
22826;SDS011;11580;52.562;13.418;2022-11-12T02:23:59;4.20;;;3.80;;
22826;SDS011;11580;52.562;13.418;2022-11-12T02:26:48;4.33;;;3.97;;
22826;SDS011;11580;52.562;13.418;2022-11-12T02:29:37;4.03;;;3.73;;
22826;SDS011;11580;52.562;13.418;2022-11-12T02:32:28;4.47;;;4.17;;
22826;SDS011;11580;52.562;13.418;2022-11-12T02:35:15;4.87;;;4.37;;
22826;SDS011;11580;52.562;13.418;2022-11-12T02:38:00;4.60;;;4.20;;
22826;SDS011;11580;52.562;13.418;2022-11-12T02:40:48;4.33;;;4.00;;
22826;SDS011;11580;52.562;13.418;2022-11-12T02:43:35;5.83;;;4.07;;
22826;SDS011;11580;52.562;13.418;2022-11-12T02:46:20;3.83;;;3.53;;
22826;SDS011;11580;52.562;13.418;2022-11-12T02:49:07;4.20;;;3.60;;
22826;SDS011;11580;52.562;13.418;2022-11-12T02:51:52;4.40;;;4.00;;
22826;SDS011;11580;52.562;13.418;2022-11-12T02:54:38;5.70;;;4.00;;
22826;SDS011;11580;52.562;13.418;2022-11-12T02:57:25;5.53;;;4.50;;
22826;SDS011;11580;52.562;13.418;2022-11-12T03:00:12;4.23;;;3.93;;
22826;SDS011;11580;52.562;13.418;2022-11-12T03:02:58;3.50;;;3.20;;
22826;SDS011;11580;52.562;13.418;2022-11-12T03:05:45;3.97;;;3.67;;
22826;SDS011;11580;52.562;13.418;2022-11-12T03:08:38;3.87;;;3.40;;
22826;SDS011;11580;52.562;13.418;2022-11-12T03:11:24;3.60;;;3.30;;
22826;SDS011;11580;52.562;13.418;2022-11-12T03:14:11;4.10;;;3.73;;
22826;SDS011;11580;52.562;13.418;2022-11-12T03:16:57;3.80;;;3.50;;
22826;SDS011;11580;52.562;13.418;2022-11-12T03:19:43;4.77;;;4.00;;
22826;SDS011;11580;52.562;13.418;2022-11-12T03:22:28;3.77;;;3.47;;
22826;SDS011;11580;52.562;13.418;2022-11-12T03:25:14;3.33;;;3.13;;
22826;SDS011;11580;52.562;13.418;2022-11-12T03:28:01;4.00;;;3.60;;
22826;SDS011;11580;52.562;13.418;2022-11-12T03:30:50;4.30;;;3.87;;
22826;SDS011;11580;52.562;13.418;2022-11-12T03:33:41;3.50;;;3.20;;
22826;SDS011;11580;52.562;13.418;2022-11-12T03:36:26;3.77;;;3.50;;
22826;SDS011;11580;52.562;13.418;2022-11-12T03:39:12;3.87;;;3.57;;
22826;SDS011;11580;52.562;13.418;2022-11-12T03:41:58;3.83;;;3.17;;
22826;SDS011;11580;52.562;13.418;2022-11-12T03:44:43;5.43;;;3.70;;
22826;SDS011;11580;52.562;13.418;2022-11-12T03:47:31;4.50;;;3.83;;
22826;SDS011;11580;52.562;13.418;2022-11-12T03:50:17;5.07;;;3.60;;
22826;SDS011;11580;52.562;13.418;2022-11-12T03:53:05;3.73;;;3.43;;
22826;SDS011;11580;52.562;13.418;2022-11-12T03:55:51;4.30;;;3.90;;
22826;SDS011;11580;52.562;13.418;2022-11-12T03:58:37;3.80;;;3.50;;
22826;SDS011;11580;52.562;13.418;2022-11-12T04:01:23;4.57;;;3.50;;
22826;SDS011;11580;52.562;13.418;2022-11-12T04:04:10;3.83;;;3.50;;
22826;SDS011;11580;52.562;13.418;2022-11-12T04:06:56;4.03;;;3.63;;
22826;SDS011;11580;52.562;13.418;2022-11-12T04:10:00;4.10;;;3.70;;
22826;SDS011;11580;52.562;13.418;2022-11-12T04:12:46;4.00;;;3.70;;
22826;SDS011;11580;52.562;13.418;2022-11-12T04:15:49;3.93;;;3.57;;
22826;SDS011;11580;52.562;13.418;2022-11-12T04:18:56;4.23;;;3.40;;
22826;SDS011;11580;52.562;13.418;2022-11-12T04:22:04;4.37;;;3.97;;
22826;SDS011;11580;52.562;13.418;2022-11-12T04:24:51;3.80;;;3.53;;
22826;SDS011;11580;52.562;13.418;2022-11-12T04:27:55;3.50;;;3.23;;
22826;SDS011;11580;52.562;13.418;2022-11-12T04:30:40;4.77;;;3.90;;
22826;SDS011;11580;52.562;13.418;2022-11-12T04:33:26;4.23;;;3.93;;
22826;SDS011;11580;52.562;13.418;2022-11-12T04:36:11;6.10;;;4.50;;
22826;SDS011;11580;52.562;13.418;2022-11-12T04:38:58;3.60;;;3.30;;
22826;SDS011;11580;52.562;13.418;2022-11-12T04:41:44;4.00;;;3.70;;
22826;SDS011;11580;52.562;13.418;2022-11-12T04:44:47;3.83;;;3.43;;
22826;SDS011;11580;52.562;13.418;2022-11-12T04:47:46;4.70;;;3.40;;
22826;SDS011;11580;52.562;13.418;2022-11-12T04:50:32;3.60;;;3.30;;
22826;SDS011;11580;52.562;13.418;2022-11-12T04:53:18;3.40;;;3.20;;
22826;SDS011;11580;52.562;13.418;2022-11-12T04:56:06;3.80;;;3.50;;
22826;SDS011;11580;52.562;13.418;2022-11-12T04:58:51;3.77;;;3.47;;
22826;SDS011;11580;52.562;13.418;2022-11-12T05:01:37;6.07;;;4.13;;
22826;SDS011;11580;52.562;13.418;2022-11-12T05:04:22;4.33;;;3.60;;
22826;SDS011;11580;52.562;13.418;2022-11-12T05:07:10;5.37;;;4.97;;
22826;SDS011;11580;52.562;13.418;2022-11-12T05:09:57;5.37;;;4.67;;
22826;SDS011;11580;52.562;13.418;2022-11-12T05:12:44;4.47;;;3.60;;
22826;SDS011;11580;52.562;13.418;2022-11-12T05:15:30;4.27;;;3.97;;
22826;SDS011;11580;52.562;13.418;2022-11-12T05:18:16;4.53;;;4.13;;
22826;SDS011;11580;52.562;13.418;2022-11-12T05:21:01;4.77;;;4.33;;
22826;SDS011;11580;52.562;13.418;2022-11-12T05:24:07;5.00;;;4.13;;
22826;SDS011;11580;52.562;13.418;2022-11-12T05:26:53;3.87;;;3.57;;
22826;SDS011;11580;52.562;13.418;2022-11-12T05:29:40;5.00;;;4.27;;
22826;SDS011;11580;52.562;13.418;2022-11-12T05:32:26;6.07;;;4.63;;
22826;SDS011;11580;52.562;13.418;2022-11-12T05:35:12;4.10;;;3.70;;
22826;SDS011;11580;52.562;13.418;2022-11-12T05:37:58;6.17;;;4.60;;
22826;SDS011;11580;52.562;13.418;2022-11-12T05:40:43;6.30;;;4.70;;
22826;SDS011;11580;52.562;13.418;2022-11-12T05:43:29;4.63;;;4.23;;
22826;SDS011;11580;52.562;13.418;2022-11-12T05:46:16;4.57;;;4.17;;
22826;SDS011;11580;52.562;13.418;2022-11-12T05:49:02;4.57;;;4.23;;
22826;SDS011;11580;52.562;13.418;2022-11-12T05:51:47;4.77;;;4.33;;
22826;SDS011;11580;52.562;13.418;2022-11-12T05:54:34;4.63;;;4.23;;
22826;SDS011;11580;52.562;13.418;2022-11-12T05:57:19;7.00;;;4.83;;
22826;SDS011;11580;52.562;13.418;2022-11-12T06:00:05;5.63;;;4.97;;
22826;SDS011;11580;52.562;13.418;2022-11-12T06:02:57;4.87;;;4.40;;
22826;SDS011;11580;52.562;13.418;2022-11-12T06:05:42;5.73;;;4.80;;
22826;SDS011;11580;52.562;13.418;2022-11-12T06:08:28;6.17;;;5.67;;
22826;SDS011;11580;52.562;13.418;2022-11-12T06:11:13;4.93;;;4.23;;
22826;SDS011;11580;52.562;13.418;2022-11-12T06:14:00;5.93;;;5.37;;
22826;SDS011;11580;52.562;13.418;2022-11-12T06:16:47;5.97;;;5.07;;
22826;SDS011;11580;52.562;13.418;2022-11-12T06:19:34;5.33;;;4.53;;
22826;SDS011;11580;52.562;13.418;2022-11-12T06:22:19;5.47;;;4.97;;
22826;SDS011;11580;52.562;13.418;2022-11-12T06:25:05;6.30;;;4.97;;
22826;SDS011;11580;52.562;13.418;2022-11-12T06:27:51;4.90;;;4.50;;
22826;SDS011;11580;52.562;13.418;2022-11-12T06:30:37;8.40;;;5.87;;
22826;SDS011;11580;52.562;13.418;2022-11-12T06:33:23;6.13;;;5.50;;
22826;SDS011;11580;52.562;13.418;2022-11-12T06:36:10;7.20;;;6.50;;
22826;SDS011;11580;52.562;13.418;2022-11-12T06:38:59;6.20;;;5.43;;
22826;SDS011;11580;52.562;13.418;2022-11-12T06:41:44;5.30;;;4.80;;
22826;SDS011;11580;52.562;13.418;2022-11-12T06:44:30;5.20;;;4.40;;
22826;SDS011;11580;52.562;13.418;2022-11-12T06:47:16;6.77;;;5.47;;
22826;SDS011;11580;52.562;13.418;2022-11-12T06:50:01;8.50;;;5.30;;
22826;SDS011;11580;52.562;13.418;2022-11-12T06:52:49;7.43;;;5.13;;
22826;SDS011;11580;52.562;13.418;2022-11-12T06:55:35;5.60;;;5.10;;
22826;SDS011;11580;52.562;13.418;2022-11-12T06:58:21;5.60;;;5.10;;
22826;SDS011;11580;52.562;13.418;2022-11-12T07:01:07;7.60;;;7.00;;
22826;SDS011;11580;52.562;13.418;2022-11-12T07:03:55;6.90;;;6.30;;
22826;SDS011;11580;52.562;13.418;2022-11-12T07:06:41;7.03;;;6.43;;
22826;SDS011;11580;52.562;13.418;2022-11-12T07:09:28;5.93;;;5.40;;
22826;SDS011;11580;52.562;13.418;2022-11-12T07:12:13;6.87;;;6.27;;
22826;SDS011;11580;52.562;13.418;2022-11-12T07:14:59;5.73;;;5.23;;
22826;SDS011;11580;52.562;13.418;2022-11-12T07:17:45;6.93;;;6.33;;
22826;SDS011;11580;52.562;13.418;2022-11-12T07:20:31;8.50;;;5.37;;
22826;SDS011;11580;52.562;13.418;2022-11-12T07:23:16;6.60;;;6.00;;
22826;SDS011;11580;52.562;13.418;2022-11-12T07:26:04;6.23;;;5.70;;
22826;SDS011;11580;52.562;13.418;2022-11-12T07:28:51;6.40;;;5.80;;
22826;SDS011;11580;52.562;13.418;2022-11-12T07:31:39;7.73;;;5.40;;
22826;SDS011;11580;52.562;13.418;2022-11-12T07:34:25;6.83;;;5.70;;
22826;SDS011;11580;52.562;13.418;2022-11-12T07:37:10;5.47;;;4.97;;
22826;SDS011;11580;52.562;13.418;2022-11-12T07:39:56;6.00;;;5.60;;
22826;SDS011;11580;52.562;13.418;2022-11-12T07:42:44;6.27;;;5.67;;
22826;SDS011;11580;52.562;13.418;2022-11-12T07:45:29;5.67;;;5.17;;
22826;SDS011;11580;52.562;13.418;2022-11-12T07:48:15;5.70;;;5.23;;
22826;SDS011;11580;52.562;13.418;2022-11-12T07:51:01;6.00;;;5.47;;
22826;SDS011;11580;52.562;13.418;2022-11-12T07:53:49;6.20;;;5.60;;
22826;SDS011;11580;52.562;13.418;2022-11-12T07:56:37;5.40;;;5.00;;
22826;SDS011;11580;52.562;13.418;2022-11-12T07:59:24;5.50;;;5.10;;
22826;SDS011;11580;52.562;13.418;2022-11-12T08:02:10;6.07;;;5.47;;
22826;SDS011;11580;52.562;13.418;2022-11-12T08:04:56;6.60;;;6.00;;
22826;SDS011;11580;52.562;13.418;2022-11-12T08:07:41;6.27;;;5.70;;
22826;SDS011;11580;52.562;13.418;2022-11-12T08:10:27;6.80;;;6.20;;
22826;SDS011;11580;52.562;13.418;2022-11-12T08:13:12;6.73;;;6.03;;
22826;SDS011;11580;52.562;13.418;2022-11-12T08:15:59;7.23;;;5.90;;
22826;SDS011;11580;52.562;13.418;2022-11-12T08:18:45;6.03;;;5.40;;
22826;SDS011;11580;52.562;13.418;2022-11-12T08:21:31;6.30;;;5.70;;
22826;SDS011;11580;52.562;13.418;2022-11-12T08:24:17;6.60;;;6.00;;
22826;SDS011;11580;52.562;13.418;2022-11-12T08:27:03;7.20;;;6.50;;
22826;SDS011;11580;52.562;13.418;2022-11-12T08:29:48;8.10;;;7.30;;
22826;SDS011;11580;52.562;13.418;2022-11-12T08:32:35;9.90;;;7.37;;
22826;SDS011;11580;52.562;13.418;2022-11-12T08:35:21;11.17;;;7.80;;
22826;SDS011;11580;52.562;13.418;2022-11-12T08:38:07;8.67;;;7.83;;
22826;SDS011;11580;52.562;13.418;2022-11-12T08:40:53;8.20;;;7.30;;
22826;SDS011;11580;52.562;13.418;2022-11-12T08:43:39;8.57;;;7.17;;
22826;SDS011;11580;52.562;13.418;2022-11-12T08:46:26;8.93;;;8.00;;
22826;SDS011;11580;52.562;13.418;2022-11-12T08:49:13;9.37;;;8.47;;
22826;SDS011;11580;52.562;13.418;2022-11-12T08:51:59;8.03;;;7.33;;
22826;SDS011;11580;52.562;13.418;2022-11-12T08:54:44;8.43;;;7.53;;
22826;SDS011;11580;52.562;13.418;2022-11-12T08:57:30;8.47;;;7.67;;
22826;SDS011;11580;52.562;13.418;2022-11-12T09:00:16;8.93;;;8.10;;
22826;SDS011;11580;52.562;13.418;2022-11-12T09:03:02;9.00;;;7.93;;
22826;SDS011;11580;52.562;13.418;2022-11-12T09:05:52;9.40;;;8.27;;
22826;SDS011;11580;52.562;13.418;2022-11-12T09:08:38;9.60;;;8.37;;
22826;SDS011;11580;52.562;13.418;2022-11-12T09:11:24;9.50;;;8.47;;
22826;SDS011;11580;52.562;13.418;2022-11-12T09:14:10;9.87;;;8.00;;
22826;SDS011;11580;52.562;13.418;2022-11-12T09:16:55;9.30;;;8.30;;
22826;SDS011;11580;52.562;13.418;2022-11-12T09:19:40;9.70;;;8.80;;
22826;SDS011;11580;52.562;13.418;2022-11-12T09:22:27;8.80;;;8.00;;
22826;SDS011;11580;52.562;13.418;2022-11-12T09:25:15;8.97;;;7.73;;
22826;SDS011;11580;52.562;13.418;2022-11-12T09:28:04;9.00;;;8.10;;
22826;SDS011;11580;52.562;13.418;2022-11-12T09:30:52;11.27;;;9.03;;
22826;SDS011;11580;52.562;13.418;2022-11-12T09:33:38;8.40;;;7.63;;
22826;SDS011;11580;52.562;13.418;2022-11-12T09:36:24;10.80;;;9.60;;
22826;SDS011;11580;52.562;13.418;2022-11-12T09:39:11;10.60;;;9.50;;
22826;SDS011;11580;52.562;13.418;2022-11-12T09:41:57;9.90;;;8.90;;
22826;SDS011;11580;52.562;13.418;2022-11-12T09:44:43;7.80;;;7.00;;
22826;SDS011;11580;52.562;13.418;2022-11-12T09:47:40;8.83;;;7.63;;
22826;SDS011;11580;52.562;13.418;2022-11-12T09:50:32;10.30;;;6.73;;
22826;SDS011;11580;52.562;13.418;2022-11-12T09:53:28;6.30;;;5.70;;
22826;SDS011;11580;52.562;13.418;2022-11-12T09:56:24;6.50;;;5.90;;
22826;SDS011;11580;52.562;13.418;2022-11-12T09:59:12;6.73;;;6.13;;
22826;SDS011;11580;52.562;13.418;2022-11-12T10:02:00;6.53;;;5.93;;
22826;SDS011;11580;52.562;13.418;2022-11-12T10:05:10;6.27;;;5.67;;
22826;SDS011;11580;52.562;13.418;2022-11-12T10:08:10;6.03;;;5.53;;
22826;SDS011;11580;52.562;13.418;2022-11-12T10:11:23;5.90;;;5.40;;
22826;SDS011;11580;52.562;13.418;2022-11-12T10:15:02;6.03;;;5.43;;
22826;SDS011;11580;52.562;13.418;2022-11-12T10:18:31;6.60;;;6.00;;
22826;SDS011;11580;52.562;13.418;2022-11-12T10:21:40;8.57;;;7.67;;
22826;SDS011;11580;52.562;13.418;2022-11-12T10:24:35;7.47;;;6.53;;
22826;SDS011;11580;52.562;13.418;2022-11-12T10:27:27;6.77;;;6.07;;
22826;SDS011;11580;52.562;13.418;2022-11-12T10:30:23;8.90;;;6.93;;
22826;SDS011;11580;52.562;13.418;2022-11-12T10:33:10;7.13;;;6.30;;
22826;SDS011;11580;52.562;13.418;2022-11-12T10:36:04;6.97;;;6.23;;
22826;SDS011;11580;52.562;13.418;2022-11-12T10:39:07;8.90;;;6.50;;
22826;SDS011;11580;52.562;13.418;2022-11-12T10:42:00;7.27;;;6.47;;
22826;SDS011;11580;52.562;13.418;2022-11-12T10:44:49;9.33;;;6.60;;
22826;SDS011;11580;52.562;13.418;2022-11-12T10:47:36;7.90;;;7.20;;
22826;SDS011;11580;52.562;13.418;2022-11-12T10:50:27;8.13;;;7.13;;
22826;SDS011;11580;52.562;13.418;2022-11-12T10:53:28;6.60;;;6.10;;
22826;SDS011;11580;52.562;13.418;2022-11-12T10:56:25;8.30;;;6.87;;
22826;SDS011;11580;52.562;13.418;2022-11-12T10:59:14;7.27;;;6.40;;
22826;SDS011;11580;52.562;13.418;2022-11-12T11:02:13;7.97;;;7.20;;
22826;SDS011;11580;52.562;13.418;2022-11-12T11:08:14;7.73;;;7.00;;
22826;SDS011;11580;52.562;13.418;2022-11-12T11:11:23;8.33;;;7.43;;
22826;SDS011;11580;52.562;13.418;2022-11-12T11:14:22;8.00;;;7.23;;
22826;SDS011;11580;52.562;13.418;2022-11-12T11:17:16;7.70;;;7.00;;
22826;SDS011;11580;52.562;13.418;2022-11-12T11:20:03;7.63;;;6.93;;
22826;SDS011;11580;52.562;13.418;2022-11-12T11:22:58;7.57;;;6.80;;
22826;SDS011;11580;52.562;13.418;2022-11-12T11:25:50;6.33;;;5.73;;
22826;SDS011;11580;52.562;13.418;2022-11-12T11:28:43;9.23;;;7.53;;
22826;SDS011;11580;52.562;13.418;2022-11-12T11:31:39;9.70;;;7.67;;
22826;SDS011;11580;52.562;13.418;2022-11-12T11:34:41;7.67;;;6.97;;
22826;SDS011;11580;52.562;13.418;2022-11-12T11:37:41;7.67;;;6.97;;
22826;SDS011;11580;52.562;13.418;2022-11-12T11:40:44;7.93;;;7.13;;
22826;SDS011;11580;52.562;13.418;2022-11-12T11:43:44;9.20;;;7.70;;
22826;SDS011;11580;52.562;13.418;2022-11-12T11:46:48;10.80;;;8.03;;
22826;SDS011;11580;52.562;13.418;2022-11-12T11:53:08;8.33;;;7.50;;
22826;SDS011;11580;52.562;13.418;2022-11-12T11:56:08;8.70;;;7.90;;
22826;SDS011;11580;52.562;13.418;2022-11-12T11:59:11;8.43;;;6.53;;
22826;SDS011;11580;52.562;13.418;2022-11-12T12:02:25;7.77;;;6.97;;
22826;SDS011;11580;52.562;13.418;2022-11-12T12:05:37;7.10;;;6.40;;
22826;SDS011;11580;52.562;13.418;2022-11-12T12:08:30;7.40;;;6.60;;
22826;SDS011;11580;52.562;13.418;2022-11-12T12:11:35;6.70;;;6.10;;
22826;SDS011;11580;52.562;13.418;2022-11-12T12:14:39;7.50;;;5.87;;
22826;SDS011;11580;52.562;13.418;2022-11-12T12:17:42;6.40;;;5.80;;
22826;SDS011;11580;52.562;13.418;2022-11-12T12:20:39;5.23;;;4.73;;
22826;SDS011;11580;52.562;13.418;2022-11-12T12:23:36;7.77;;;6.33;;
22826;SDS011;11580;52.562;13.418;2022-11-12T12:26:29;7.30;;;5.00;;
22826;SDS011;11580;52.562;13.418;2022-11-12T12:29:22;6.30;;;4.97;;
22826;SDS011;11580;52.562;13.418;2022-11-12T12:32:17;6.80;;;5.37;;
22826;SDS011;11580;52.562;13.418;2022-11-12T12:35:18;9.47;;;6.70;;
22826;SDS011;11580;52.562;13.418;2022-11-12T12:38:13;7.30;;;6.50;;
22826;SDS011;11580;52.562;13.418;2022-11-12T12:41:11;8.10;;;6.80;;
22826;SDS011;11580;52.562;13.418;2022-11-12T12:44:10;7.40;;;6.20;;
22826;SDS011;11580;52.562;13.418;2022-11-12T12:46:56;6.97;;;6.27;;
22826;SDS011;11580;52.562;13.418;2022-11-12T12:49:45;7.83;;;7.00;;
22826;SDS011;11580;52.562;13.418;2022-11-12T12:55:46;7.47;;;6.37;;
22826;SDS011;11580;52.562;13.418;2022-11-12T12:58:39;8.20;;;7.07;;
22826;SDS011;11580;52.562;13.418;2022-11-12T13:01:29;6.57;;;5.97;;
22826;SDS011;11580;52.562;13.418;2022-11-12T13:04:25;6.87;;;6.23;;
22826;SDS011;11580;52.562;13.418;2022-11-12T13:07:37;7.07;;;6.10;;
22826;SDS011;11580;52.562;13.418;2022-11-12T13:13:35;6.73;;;6.03;;
22826;SDS011;11580;52.562;13.418;2022-11-12T13:19:43;6.63;;;5.90;;
22826;SDS011;11580;52.562;13.418;2022-11-12T13:22:51;7.47;;;5.77;;
22826;SDS011;11580;52.562;13.418;2022-11-12T13:25:37;7.23;;;6.27;;
22826;SDS011;11580;52.562;13.418;2022-11-12T13:28:24;6.20;;;5.60;;
22826;SDS011;11580;52.562;13.418;2022-11-12T13:31:24;5.60;;;5.07;;
22826;SDS011;11580;52.562;13.418;2022-11-12T13:34:12;5.80;;;5.20;;
22826;SDS011;11580;52.562;13.418;2022-11-12T13:37:11;7.17;;;6.57;;
22826;SDS011;11580;52.562;13.418;2022-11-12T13:40:07;7.40;;;6.60;;
22826;SDS011;11580;52.562;13.418;2022-11-12T13:42:57;6.70;;;6.03;;
22826;SDS011;11580;52.562;13.418;2022-11-12T13:45:52;7.00;;;5.73;;
22826;SDS011;11580;52.562;13.418;2022-11-12T13:48:50;6.60;;;5.50;;
22826;SDS011;11580;52.562;13.418;2022-11-12T13:51:42;6.83;;;5.73;;
22826;SDS011;11580;52.562;13.418;2022-11-12T13:54:33;6.73;;;6.13;;
22826;SDS011;11580;52.562;13.418;2022-11-12T13:57:28;7.00;;;5.70;;
22826;SDS011;11580;52.562;13.418;2022-11-12T14:00:23;5.83;;;5.30;;
22826;SDS011;11580;52.562;13.418;2022-11-12T14:03:14;8.23;;;6.50;;
22826;SDS011;11580;52.562;13.418;2022-11-12T14:06:04;8.73;;;6.27;;
22826;SDS011;11580;52.562;13.418;2022-11-12T14:09:02;6.37;;;5.70;;
22826;SDS011;11580;52.562;13.418;2022-11-12T14:12:16;6.63;;;5.67;;
22826;SDS011;11580;52.562;13.418;2022-11-12T14:15:29;7.50;;;6.13;;
22826;SDS011;11580;52.562;13.418;2022-11-12T14:18:42;9.77;;;7.30;;
22826;SDS011;11580;52.562;13.418;2022-11-12T14:21:59;7.30;;;5.83;;
22826;SDS011;11580;52.562;13.418;2022-11-12T14:24:58;8.27;;;6.77;;
22826;SDS011;11580;52.562;13.418;2022-11-12T14:27:46;6.97;;;6.20;;
22826;SDS011;11580;52.562;13.418;2022-11-12T14:30:33;6.23;;;5.63;;
22826;SDS011;11580;52.562;13.418;2022-11-12T14:33:28;9.23;;;5.83;;
22826;SDS011;11580;52.562;13.418;2022-11-12T14:36:17;10.17;;;6.30;;
22826;SDS011;11580;52.562;13.418;2022-11-12T14:39:04;6.90;;;5.30;;
22826;SDS011;11580;52.562;13.418;2022-11-12T14:41:55;7.27;;;6.20;;
22826;SDS011;11580;52.562;13.418;2022-11-12T14:44:43;7.27;;;5.90;;
22826;SDS011;11580;52.562;13.418;2022-11-12T14:47:28;6.67;;;6.00;;
22826;SDS011;11580;52.562;13.418;2022-11-12T14:50:14;7.53;;;6.93;;
22826;SDS011;11580;52.562;13.418;2022-11-12T14:53:08;7.30;;;6.30;;
22826;SDS011;11580;52.562;13.418;2022-11-12T14:56:03;12.93;;;6.27;;
22826;SDS011;11580;52.562;13.418;2022-11-12T14:58:53;8.70;;;6.30;;
22826;SDS011;11580;52.562;13.418;2022-11-12T15:01:40;7.33;;;6.10;;
22826;SDS011;11580;52.562;13.418;2022-11-12T15:04:51;6.93;;;6.33;;
22826;SDS011;11580;52.562;13.418;2022-11-12T15:07:51;7.10;;;6.40;;
22826;SDS011;11580;52.562;13.418;2022-11-12T15:10:41;7.60;;;6.57;;
22826;SDS011;11580;52.562;13.418;2022-11-12T15:13:28;9.17;;;7.33;;
22826;SDS011;11580;52.562;13.418;2022-11-12T15:16:24;9.60;;;7.73;;
22826;SDS011;11580;52.562;13.418;2022-11-12T15:19:20;8.93;;;8.13;;
22826;SDS011;11580;52.562;13.418;2022-11-12T15:22:16;8.80;;;7.50;;
22826;SDS011;11580;52.562;13.418;2022-11-12T15:25:11;10.10;;;8.50;;
22826;SDS011;11580;52.562;13.418;2022-11-12T15:28:19;11.43;;;10.33;;
22826;SDS011;11580;52.562;13.418;2022-11-12T15:31:15;9.73;;;8.80;;
22826;SDS011;11580;52.562;13.418;2022-11-12T15:37:18;10.53;;;9.50;;
22826;SDS011;11580;52.562;13.418;2022-11-12T15:40:10;11.37;;;10.23;;
22826;SDS011;11580;52.562;13.418;2022-11-12T15:43:01;14.23;;;10.60;;
22826;SDS011;11580;52.562;13.418;2022-11-12T15:45:49;11.63;;;10.60;;
22826;SDS011;11580;52.562;13.418;2022-11-12T15:48:36;11.60;;;10.40;;
22826;SDS011;11580;52.562;13.418;2022-11-12T15:51:22;13.90;;;10.97;;
22826;SDS011;11580;52.562;13.418;2022-11-12T15:54:07;13.30;;;12.00;;
22826;SDS011;11580;52.562;13.418;2022-11-12T15:56:53;14.13;;;12.73;;
22826;SDS011;11580;52.562;13.418;2022-11-12T15:59:39;12.90;;;11.70;;
22826;SDS011;11580;52.562;13.418;2022-11-12T16:02:26;14.70;;;12.73;;
22826;SDS011;11580;52.562;13.418;2022-11-12T16:05:14;14.33;;;12.90;;
22826;SDS011;11580;52.562;13.418;2022-11-12T16:08:02;14.90;;;12.67;;
22826;SDS011;11580;52.562;13.418;2022-11-12T16:10:48;14.43;;;13.07;;
22826;SDS011;11580;52.562;13.418;2022-11-12T16:13:34;17.10;;;15.27;;
22826;SDS011;11580;52.562;13.418;2022-11-12T16:16:20;20.90;;;18.70;;
22826;SDS011;11580;52.562;13.418;2022-11-12T16:19:13;19.77;;;17.60;;
22826;SDS011;11580;52.562;13.418;2022-11-12T16:21:59;19.90;;;17.80;;
22826;SDS011;11580;52.562;13.418;2022-11-12T16:24:45;21.40;;;19.00;;
22826;SDS011;11580;52.562;13.418;2022-11-12T16:27:30;23.07;;;20.87;;
22826;SDS011;11580;52.562;13.418;2022-11-12T16:30:17;18.50;;;16.70;;
22826;SDS011;11580;52.562;13.418;2022-11-12T16:33:08;21.27;;;19.27;;
22826;SDS011;11580;52.562;13.418;2022-11-12T16:35:57;20.07;;;18.27;;
22826;SDS011;11580;52.562;13.418;2022-11-12T16:38:43;21.40;;;19.13;;
22826;SDS011;11580;52.562;13.418;2022-11-12T16:41:29;21.87;;;19.57;;
22826;SDS011;11580;52.562;13.418;2022-11-12T16:44:15;19.43;;;17.50;;
22826;SDS011;11580;52.562;13.418;2022-11-12T16:47:01;20.73;;;18.80;;
22826;SDS011;11580;52.562;13.418;2022-11-12T16:49:48;24.20;;;20.63;;
22826;SDS011;11580;52.562;13.418;2022-11-12T16:52:35;23.83;;;21.60;;
22826;SDS011;11580;52.562;13.418;2022-11-12T16:55:21;25.20;;;22.97;;
22826;SDS011;11580;52.562;13.418;2022-11-12T16:58:09;19.13;;;17.40;;
22826;SDS011;11580;52.562;13.418;2022-11-12T17:00:56;19.03;;;17.00;;
22826;SDS011;11580;52.562;13.418;2022-11-12T17:03:42;18.70;;;16.97;;
22826;SDS011;11580;52.562;13.418;2022-11-12T17:06:32;18.47;;;16.67;;